Latest Weather Observations for Truscott

IDW60801

Issued at 3:03 pm WST Saturday 30 July 2016 (issued every 30 minutes, with the page automatically refreshed every 10 minutes)

About weather observations | Map of weather stations | Latest weather observations for WA | Other Formats
Station Details ID: 001020 Name: TRUSCOTT Lat: -14.09 Lon: 126.39 Height: 51.0 m
Data from the previous 72 hours. | See also: Recent months at Truscott
Date/Time
WST
Temp
°C
App
Temp
°C
Dew
Point
°C
Rel
Hum
%
Delta-T
°C
Wind Press
QNH
hPa
Press
MSL
hPa
Rain since
9am
mm
Dir  Spd
km/h
Gust
km/h
Spd
kts
Gust
kts
30/03:00pm 31.9 27.9 3.0 16 14.7 E 13 20 7 11 1010.0 1010.4 0.0
30/02:30pm 32.0 27.7 3.0 16 14.8 ENE 15 15 8 8 1010.0 - 0.0
30/02:00pm 31.5 26.0 0.8 14 15.1 E 19 - 10 - 1011.0 1010.7 0.0
30/01:30pm 32.0 27.7 1.0 14 15.3 NE 13 - 7 - 1011.0 - 0.0
30/01:00pm 31.6 25.4 -0.1 13 15.3 E 22 - 12 - 1011.0 1011.3 0.0
30/12:30pm 31.0 25.1 -1.0 12 15.2 ENE 20 - 11 - 1012.0 - 0.0
30/12:00pm 31.2 25.3 -0.5 13 15.2 E 20 - 11 - 1012.0 1012.4 0.0
30/11:30am 31.0 25.6 -1.0 12 15.2 ENE 17 - 9 - 1013.0 - 0.0
30/11:00am 29.9 23.5 -1.5 13 14.6 E 22 - 12 - 1014.0 1013.9 0.0
30/10:30am 30.0 24.1 -2.0 12 14.8 E 19 - 10 - 1014.0 - 0.0
30/10:00am 29.0 22.2 -2.2 13 14.2 E 24 - 13 - 1014.0 1014.5 0.0
30/09:30am 29.0 23.3 -1.0 14 14.0 E 19 - 10 - 1014.0 - 0.0
30/09:00am 27.9 22.3 -0.2 16 13.2 ESE 19 - 10 - 1015.0 1014.8 0.0
30/08:30am 27.0 21.4 0.0 17 12.6 ESE 19 - 10 - 1015.0 - 0.0
30/08:00am 25.8 20.7 0.5 19 11.8 ESE 17 - 9 - 1015.0 1014.8 0.0
30/07:30am 25.0 20.5 2.0 22 11.0 ESE 15 - 8 - 1014.0 - 0.0
30/07:00am 23.7 19.7 3.1 26 10.0 ESE 13 - 7 - 1014.0 1014.4 0.0
30/06:30am 23.0 19.2 4.0 29 9.3 SE 13 - 7 - 1014.0 - 0.0
30/06:00am 22.3 18.5 3.9 30 8.9 ESE 13 - 7 - 1013.0 1013.7 0.0
30/05:50am 22.0 18.6 4.0 30 8.8 ESE 11 - 6 - 1013.0 - 0.0
30/05:31am 22.0 18.6 4.0 30 8.8 ESE 11 - 6 - 1013.0 - 0.0
30/05:30am 22.0 18.6 4.0 30 8.8 ESE 11 - 6 - 1013.0 - 0.0
30/05:00am 21.9 18.9 4.0 31 8.7 ESE 9 - 5 - 1013.0 1013.0 0.0
30/04:30am 22.0 19.0 4.0 30 8.8 SE 9 - 5 - 1013.0 - 0.0
30/04:00am 22.1 19.1 4.2 31 8.7 SE 9 - 5 - 1012.0 1012.7 0.0
30/03:30am 22.0 19.0 4.0 30 8.8 SSE 9 - 5 - 1012.0 - 0.0
30/03:00am 22.8 19.8 4.3 30 9.1 SSE 9 - 5 - 1013.0 1012.8 0.0
30/02:30am 23.0 20.2 5.0 31 9.0 SSE 9 - 5 - 1013.0 - 0.0
30/02:00am 21.8 19.0 5.3 34 8.2 SSE 9 - 5 - 1013.0 1013.0 0.0
30/01:30am 21.0 18.8 6.0 37 7.5 SSE 7 - 4 - 1013.0 - 0.0
30/01:00am 21.3 19.1 6.0 37 7.7 SSE 7 - 4 - 1013.0 1013.2 0.0
30/12:30am 22.0 19.8 6.0 35 8.1 SE 7 - 4 - 1013.0 - 0.0
30/12:00am 21.6 19.5 6.7 38 7.6 ESE 7 - 4 - 1013.0 1013.7 0.0
 
Date/Time
WST
Temp
°C
App
Temp
°C
Dew
Point
°C
Rel
Hum
%
Delta-T
°C
Wind Press
QNH
hPa
Press
MSL
hPa
Rain since
9am
mm
Dir  Spd
km/h
Gust
km/h
Spd
kts
Gust
kts
29/11:30pm 22.0 20.2 8.0 40 7.3 SE 7 - 4 - 1014.0 - 0.0
29/11:00pm 21.4 20.4 11.1 52 5.7 E 7 - 4 - 1014.0 1014.1 0.0
29/10:30pm 21.0 20.3 12.0 56 5.0 E 7 - 4 - 1014.0 - 0.0
29/10:00pm 22.2 21.9 13.3 57 5.1 SSE 7 - 4 - 1014.0 1014.1 0.0
29/09:30pm 21.0 20.8 13.0 60 4.6 E 6 - 3 - 1014.0 - 0.0
29/09:00pm 21.6 21.4 13.5 60 4.7 E 7 - 4 - 1014.0 1014.5 0.0
29/08:30pm 23.0 23.1 14.0 57 5.3 E 6 - 3 - 1014.0 - 0.0
29/08:26pm 24.0 23.9 14.0 53 5.9 E 7 - 4 - 1014.0 - 0.0
29/08:15pm 24.0 23.9 14.0 53 5.9 ENE 7 - 4 - 1014.0 - 0.0
29/08:00pm 24.6 24.7 14.4 53 6.1 ENE 7 - 4 - 1014.0 1014.2 0.0
29/07:30pm 26.0 24.9 13.0 44 7.6 ENE 11 - 6 - 1014.0 - 0.0
29/07:00pm 25.7 24.7 12.2 43 7.8 ENE 9 - 5 - 1013.0 1013.5 0.0
29/06:30pm 26.0 25.6 13.0 44 7.6 NE 7 - 4 - 1013.0 - 0.0
29/06:00pm 26.1 26.0 13.9 47 7.2 NE 7 - 4 - 1012.0 1012.5 0.0
29/05:30pm 27.0 26.6 14.0 44 7.7 NNE 9 - 5 - 1012.0 - 0.0
29/05:00pm 28.0 26.4 12.8 39 8.9 NNE 13 - 7 - 1012.0 1011.7 0.0
29/04:30pm 29.0 26.8 12.0 35 9.9 NE 15 - 8 - 1011.0 - 0.0
29/04:00pm 30.0 27.2 11.5 32 10.7 NE 17 - 9 - 1011.0 1011.3 0.0
29/03:30pm 32.0 28.6 6.0 19 13.9 ENE 13 - 7 - 1011.0 - 0.0
29/03:00pm 31.3 27.3 4.9 19 13.9 ENE 15 - 8 - 1011.0 1011.3 0.0
29/02:30pm 31.0 27.0 5.0 19 13.6 E 15 - 8 - 1011.0 - 0.0
29/02:00pm 31.5 26.6 5.1 19 13.9 ENE 20 - 11 - 1011.0 1011.5 0.0
29/01:30pm 31.0 26.3 5.0 19 13.6 ENE 19 - 10 - 1012.0 - 0.0
29/01:00pm 30.6 26.1 4.4 19 13.6 ENE 17 - 9 - 1012.0 1012.2 0.0
29/12:30pm 31.0 25.9 4.0 18 13.9 ENE 20 - 11 - 1013.0 - 0.0
29/12:00pm 30.6 25.6 4.4 19 13.6 ESE 20 - 11 - 1013.0 1013.2 0.0
29/11:30am 30.0 24.9 4.0 19 13.3 E 20 - 11 - 1013.0 - 0.0
29/11:00am 29.4 24.3 4.1 20 12.9 E 20 - 11 - 1014.0 1014.1 0.0
29/10:30am 29.0 23.3 3.0 19 13.0 E 22 - 12 - 1014.0 - 0.0
29/10:00am 29.0 23.5 3.8 20 12.8 E 22 - 12 - 1015.0 1014.8 0.0
29/09:30am 28.0 22.9 3.0 20 12.4 E 19 - 10 - 1015.0 - 0.0
29/09:00am 27.5 21.8 2.6 20 12.2 ESE 22 - 12 - 1015.0 1015.3 0.0
29/08:30am 27.0 21.7 3.0 21 11.9 ESE 20 - 11 - 1015.0 - 0.0
29/08:00am 25.5 20.3 2.2 22 11.2 ESE 19 - 10 - 1015.0 1015.4 0.0
29/07:30am 25.0 20.1 2.0 22 11.0 ESE 17 - 9 - 1015.0 - 0.0
29/07:00am 24.0 19.0 1.6 23 10.5 ESE 17 - 9 - 1015.0 1015.3 0.0
29/06:30am 23.0 18.9 2.0 25 9.9 SE 13 - 7 - 1015.0 - 0.0
29/06:00am 22.5 18.4 2.1 26 9.6 SE 13 - 7 - 1015.0 1014.8 0.0
29/05:30am 23.0 19.2 2.0 25 9.9 ESE 11 - 6 - 1014.0 - 0.0
29/05:00am 22.3 19.0 2.4 27 9.4 SE 9 - 5 - 1014.0 1014.2 0.0
29/04:30am 22.0 18.6 2.0 26 9.4 SE 9 - 5 - 1014.0 - 0.0
29/04:00am 22.1 18.4 2.2 27 9.4 SE 11 - 6 - 1014.0 1013.9 0.0
29/03:30am 22.0 19.0 2.0 26 9.4 SE 7 - 4 - 1014.0 - 0.0
29/03:00am 21.8 18.4 2.0 27 9.2 SE 9 - 5 - 1014.0 1014.1 0.0
29/02:30am 22.0 19.0 2.0 26 9.4 SE 7 - 4 - 1014.0 - 0.0
29/02:00am 22.0 18.7 2.2 27 9.3 SE 9 - 5 - 1014.0 1014.3 0.0
29/01:30am 21.0 17.8 3.0 30 8.5 SE 9 - 5 - 1014.0 - 0.0
29/01:00am 22.0 18.8 3.2 29 9.0 SE 9 - 5 - 1015.0 1014.9 0.0
29/12:30am 21.0 18.4 4.0 32 8.2 SE 7 - 4 - 1015.0 - 0.0
29/12:00am 19.8 17.8 6.2 41 6.8 SE 6 - 3 - 1015.0 1015.0 0.0
 
Date/Time
WST
Temp
°C
App
Temp
°C
Dew
Point
°C
Rel
Hum
%
Delta-T
°C
Wind Press
QNH
hPa
Press
MSL
hPa
Rain since
9am
mm
Dir  Spd
km/h
Gust
km/h
Spd
kts
Gust
kts
28/11:30pm 21.0 18.8 6.0 37 7.5 ESE 7 - 4 - 1015.0 - 0.0
28/11:00pm 22.1 19.7 5.1 33 8.4 ESE 7 - 4 - 1015.0 1015.2 0.0
28/10:30pm 22.0 20.2 8.0 40 7.3 ESE 7 - 4 - 1015.0 - 0.0
28/10:00pm 20.2 20.4 14.1 68 3.5 E 6 - 3 - 1015.0 1015.3 0.0
28/09:30pm 20.0 19.9 14.0 68 3.5 E 7 - 4 - 1015.0 - 0.0
28/09:00pm 20.4 19.7 12.1 59 4.6 E 7 - 4 - 1015.0 1015.1 0.0
28/08:30pm 21.0 20.3 12.0 56 5.0 E 7 - 4 - 1015.0 - 0.0
28/08:00pm 21.4 21.0 12.3 56 5.1 ENE 6 - 3 - 1015.0 1015.0 0.0
28/07:30pm 22.0 21.2 11.0 49 6.1 E 6 - 3 - 1014.0 - 0.0
28/07:00pm 23.3 22.4 10.7 45 7.0 ENE 6 - 3 - 1014.0 1014.5 0.0
28/06:30pm 24.0 22.2 8.0 36 8.5 NE 7 - 4 - 1014.0 - 0.0
28/06:00pm 25.4 23.5 7.5 32 9.5 ENE 7 - 4 - 1013.0 1013.6 0.0
28/05:30pm 27.0 24.6 7.0 28 10.6 ENE 9 - 5 - 1013.0 - 0.0
28/05:00pm 27.9 25.2 7.2 27 11.1 ENE 11 - 6 - 1013.0 1012.8 0.0
28/04:30pm 29.0 26.5 8.0 26 11.5 ENE 11 - 6 - 1012.0 - 0.0
28/04:00pm 30.5 26.5 2.7 17 14.0 E 13 - 7 - 1012.0 1012.4 0.0
28/03:30pm 31.0 26.9 2.0 15 14.5 E 13 - 7 - 1012.0 - 0.0
28/03:00pm 30.5 26.0 1.9 16 14.2 ENE 15 - 8 - 1012.0 1012.3 0.0
28/02:30pm 31.0 26.3 3.0 17 14.2 E 17 - 9 - 1012.0 - 0.0
28/02:00pm 30.7 26.0 2.9 17 14.0 E 17 - 9 - 1012.0 1012.5 0.0
28/01:30pm 30.0 25.1 2.0 16 13.9 E 17 - 9 - 1013.0 - 0.0
28/01:00pm 30.0 24.6 2.3 17 13.8 ENE 20 - 11 - 1013.0 1013.4 0.0
28/12:30pm 30.0 24.9 1.0 15 14.1 E 17 - 9 - 1014.0 - 0.0
28/12:00pm 29.0 23.1 1.5 17 13.4 E 22 - 12 - 1014.0 1014.6 0.0
28/11:30am 29.0 23.4 1.0 16 13.5 E 20 41 11 22 1015.0 - 0.0
28/11:00am 28.5 22.6 1.9 18 13.0 E 22 - 12 - 1015.0 1015.6 0.0
28/10:30am 28.0 21.6 1.0 17 13.0 E 24 - 13 - 1016.0 - 0.0
28/10:00am 27.4 21.9 1.8 19 12.4 E 20 - 11 - 1016.0 1016.3 0.0
28/09:30am 27.0 21.0 1.0 18 12.4 ESE 22 - 12 - 1016.0 - 0.0
28/09:00am 26.3 19.8 0.1 18 12.2 ESE 24 - 13 - 1017.0 1016.9 0.0
28/08:30am 26.0 20.0 1.0 19 11.8 ESE 22 41 12 22 1017.0 - 0.0
28/08:00am 25.2 19.0 0.0 19 11.6 ESE 22 - 12 - 1017.0 1017.0 0.0
28/07:30am 25.0 19.4 0.0 19 11.5 ESE 19 - 10 - 1017.0 - 0.0
28/07:00am 23.9 18.4 0.9 22 10.7 ESE 19 - 10 - 1017.0 1016.8 0.0
28/06:30am 23.0 18.5 2.0 25 9.9 ESE 15 - 8 - 1016.0 - 0.0
28/06:00am 23.1 19.1 2.6 26 9.8 ESE 13 - 7 - 1016.0 1016.0 0.0
28/05:30am 23.0 19.4 3.0 27 9.6 SE 11 - 6 - 1015.0 - 0.0
28/05:00am 23.5 19.2 3.4 27 9.8 SE 15 - 8 - 1015.0 1015.1 0.0
28/04:30am 24.0 20.2 4.0 27 9.9 ESE 13 - 7 - 1015.0 - 0.0
28/04:00am 23.7 19.9 4.1 28 9.7 ESE 13 - 7 - 1015.0 1014.9 0.0
28/03:30am 24.0 20.4 5.0 29 9.5 SE 13 - 7 - 1014.0 - 0.0
28/03:00am 24.5 20.1 4.8 28 9.9 ESE 17 - 9 - 1014.0 1014.5 0.0
28/02:30am 24.0 20.0 5.0 29 9.5 SE 15 - 8 - 1014.0 - 0.0
28/02:00am 23.1 20.4 5.5 32 8.9 SE 9 - 5 - 1014.0 1014.5 0.0
28/01:30am 23.0 20.4 6.0 33 8.6 ESE 9 - 5 - 1014.0 - 0.0
28/01:00am 19.4 17.6 7.2 45 6.2 SSE 6 - 3 - 1014.0 1014.6 0.0
28/12:30am 20.0 19.5 8.0 46 6.2 CALM 0 - 0 - 1014.0 - 0.0
28/12:00am 21.4 19.6 8.0 42 7.0 SSE 7 - 4 - 1014.0 1014.7 0.0
 
Date/Time
WST
Temp
°C
App
Temp
°C
Dew
Point
°C
Rel
Hum
%
Delta-T
°C
Wind Press
QNH
hPa
Press
MSL
hPa
Rain since
9am
mm
Dir  Spd
km/h
Gust
km/h
Spd
kts
Gust
kts
27/11:30pm 21.0 19.6 9.0 46 6.4 SSE 6 - 3 - 1014.0 - 0.0
27/11:00pm 22.5 21.2 9.3 43 7.1 SE 6 - 3 - 1015.0 1014.8 0.0
27/10:30pm 23.0 22.0 11.0 46 6.7 SE 7 - 4 - 1015.0 - 0.0
27/10:00pm 23.1 22.5 12.4 51 6.1 SE 7 - 4 - 1015.0 1014.9 0.0
27/09:30pm 24.0 23.9 14.0 53 5.9 SE 7 - 4 - 1015.0 - 0.0
27/09:00pm 23.7 23.6 13.8 53 5.8 E 7 - 4 - 1015.0 1014.9 0.0
27/08:30pm 24.0 23.9 14.0 53 5.9 E 7 - 4 - 1015.0 - 0.0
27/08:00pm 24.9 24.5 14.1 51 6.4 ENE 9 - 5 - 1014.0 1014.7 0.0
27/07:30pm 26.0 25.6 13.0 44 7.6 E 7 - 4 - 1014.0 - 0.0
27/07:00pm 26.1 25.4 13.2 44 7.6 ENE 9 - 5 - 1013.0 1013.7 0.0
27/06:30pm 26.0 25.6 14.0 47 7.1 NE 9 - 5 - 1013.0 - 0.0
27/06:00pm 27.4 26.3 10.6 35 9.5 ENE 7 - 4 - 1013.0 1012.9 0.0
27/05:30pm 29.0 27.0 10.0 30 10.7 ENE 11 - 6 - 1012.0 - 0.0
27/05:00pm 29.8 26.8 9.3 28 11.5 ENE 15 - 8 - 1012.0 1012.1 0.0
27/04:30pm 31.0 27.7 8.0 24 12.7 E 15 - 8 - 1012.0 - 0.0
27/04:00pm 31.4 27.1 7.1 22 13.2 ENE 19 - 10 - 1011.0 1011.6 0.0
27/03:30pm 32.0 28.1 7.0 21 13.6 ENE 17 - 9 - 1011.0 - 0.0

Other Formats:

Comma delimited format used in spreadsheet applications
http://www.bom.gov.au/fwo/IDW60801/IDW60801.95101.axf

JavaScript Object Notation format (JSON) in row-major order
http://www.bom.gov.au/fwo/IDW60801/IDW60801.95101.json